createdAt,value
2023-02-16T00:01:52.122Z,6.30
2023-02-16T00:04:24.809Z,5.85
2023-02-16T00:06:53.093Z,6.13
2023-02-16T00:09:20.986Z,7.10
2023-02-16T00:12:07.661Z,5.70
2023-02-16T00:14:36.647Z,6.40
2023-02-16T00:17:05.240Z,6.55
2023-02-16T00:19:38.852Z,6.25
2023-02-16T00:22:06.865Z,6.10
2023-02-16T00:24:33.712Z,5.97
2023-02-16T00:27:01.940Z,5.35
2023-02-16T00:29:34.884Z,6.80
2023-02-16T00:32:04.028Z,7.50
2023-02-16T00:34:32.433Z,6.78
2023-02-16T00:37:01.697Z,6.60
2023-02-16T00:39:29.292Z,6.90
2023-02-16T00:42:00.134Z,8.05
2023-02-16T00:44:41.684Z,7.32
2023-02-16T00:47:39.080Z,7.93
2023-02-16T00:50:45.311Z,6.18
2023-02-16T00:53:11.964Z,7.25
2023-02-16T00:55:40.568Z,6.93
2023-02-16T00:58:16.405Z,7.40
2023-02-16T01:00:55.264Z,6.72
2023-02-16T01:03:28.221Z,7.05
2023-02-16T01:06:15.382Z,6.88
2023-02-16T01:09:02.172Z,7.45
2023-02-16T01:11:29.237Z,6.65
2023-02-16T01:13:57.079Z,6.90
2023-02-16T01:16:28.519Z,6.90
2023-02-16T01:18:55.107Z,6.68
2023-02-16T01:21:22.084Z,6.25
2023-02-16T01:23:49.237Z,7.05
2023-02-16T01:26:18.695Z,6.97
2023-02-16T01:28:45.879Z,7.32
2023-02-16T01:31:14.601Z,7.35
2023-02-16T01:33:43.895Z,6.43
2023-02-16T01:36:26.787Z,6.18
2023-02-16T01:38:53.487Z,6.55
2023-02-16T01:41:47.048Z,6.43
2023-02-16T01:44:21.378Z,7.90
2023-02-16T01:47:25.023Z,7.55
2023-02-16T01:49:51.637Z,6.35
2023-02-16T01:52:41.937Z,6.35
2023-02-16T01:55:25.435Z,7.50
2023-02-16T01:58:01.553Z,7.53
2023-02-16T02:00:49.678Z,8.10
2023-02-16T02:03:42.299Z,7.70
2023-02-16T02:06:14.920Z,7.15
2023-02-16T02:08:44.266Z,7.03
2023-02-16T02:11:30.399Z,7.32
2023-02-16T02:14:10.187Z,7.88
2023-02-16T02:16:37.119Z,6.47
2023-02-16T02:19:03.968Z,7.78
2023-02-16T02:22:19.295Z,7.97
2023-02-16T02:24:54.985Z,7.07
2023-02-16T02:27:26.584Z,7.32
2023-02-16T02:30:02.477Z,7.13
2023-02-16T02:32:56.274Z,6.50
2023-02-16T02:35:38.324Z,7.00
2023-02-16T02:38:12.095Z,5.63
2023-02-16T02:40:59.176Z,6.72
2023-02-16T02:43:37.929Z,6.30
2023-02-16T02:46:24.824Z,6.45
2023-02-16T02:48:51.818Z,6.28
2023-02-16T02:51:30.946Z,6.13
2023-02-16T02:54:18.344Z,6.60
2023-02-16T02:57:13.015Z,5.93
2023-02-16T03:00:01.231Z,6.50
2023-02-16T03:02:30.536Z,7.75
2023-02-16T03:04:58.812Z,7.38
2023-02-16T03:07:46.674Z,7.18
2023-02-16T03:10:39.266Z,6.68
2023-02-16T03:13:13.009Z,4.60
2023-02-16T03:15:41.057Z,7.28
2023-02-16T03:18:31.565Z,6.85
2023-02-16T03:21:17.466Z,6.25
2023-02-16T03:24:03.832Z,7.00
2023-02-16T03:26:50.720Z,6.22
2023-02-16T03:29:18.746Z,7.20
2023-02-16T03:31:46.616Z,7.47
2023-02-16T03:34:14.656Z,6.78
2023-02-16T03:36:43.540Z,6.85
2023-02-16T03:39:11.597Z,7.22
2023-02-16T03:41:49.841Z,6.50
2023-02-16T03:44:16.684Z,7.55
2023-02-16T03:46:43.376Z,6.57
2023-02-16T03:49:10.203Z,7.25
2023-02-16T03:51:37.263Z,7.05
2023-02-16T03:54:03.922Z,7.05
2023-02-16T03:56:30.556Z,8.02
2023-02-16T03:58:57.145Z,7.57
2023-02-16T04:01:23.792Z,6.60
2023-02-16T04:03:51.511Z,8.23
2023-02-16T04:06:18.187Z,7.57
2023-02-16T04:08:44.783Z,9.13
2023-02-16T20:50:08.797Z,7.20
2023-02-16T20:52:35.905Z,7.22
2023-02-16T20:55:02.554Z,7.57
2023-02-16T20:57:29.214Z,6.82
2023-02-16T20:59:56.240Z,7.72
2023-02-16T21:02:23.173Z,7.65
2023-02-16T21:04:50.642Z,7.45
2023-02-16T21:07:17.295Z,7.28
2023-02-16T21:09:44.104Z,8.57
2023-02-16T21:12:12.271Z,7.78
2023-02-16T21:14:38.887Z,7.38
2023-02-16T21:17:05.513Z,7.28
2023-02-16T21:19:32.228Z,7.45
2023-02-16T21:21:58.811Z,8.10
2023-02-16T21:24:25.405Z,7.88
2023-02-16T21:26:52.018Z,7.88
2023-02-16T21:29:18.702Z,7.85
2023-02-16T21:31:45.573Z,8.50
2023-02-16T21:34:12.635Z,8.63
2023-02-16T21:36:39.346Z,7.80
2023-02-16T21:39:06.498Z,7.97
2023-02-16T21:41:33.178Z,7.95
2023-02-16T21:44:02.499Z,7.75
2023-02-16T21:46:32.153Z,8.50
2023-02-16T21:48:59.390Z,7.13
2023-02-16T21:51:32.078Z,8.23
2023-02-16T21:53:59.286Z,7.57
2023-02-16T21:56:42.653Z,7.95
2023-02-16T21:59:12.665Z,7.88
2023-02-16T22:01:44.448Z,7.82
2023-02-16T22:04:13.112Z,8.25
2023-02-16T22:06:42.198Z,7.75
2023-02-16T22:09:12.429Z,7.65
2023-02-16T22:11:39.287Z,8.55
2023-02-16T22:14:06.417Z,7.63
2023-02-16T22:16:35.346Z,8.38
2023-02-16T22:19:08.822Z,8.10
2023-02-16T22:21:39.658Z,8.02
2023-02-16T22:24:06.917Z,7.78
2023-02-16T22:26:35.649Z,7.75
2023-02-16T22:29:06.125Z,8.65
2023-02-16T22:31:33.360Z,8.45
2023-02-16T22:34:06.712Z,7.05
2023-02-16T22:36:47.123Z,8.07
2023-02-16T22:39:17.313Z,7.78
2023-02-16T22:41:43.964Z,8.30
2023-02-16T22:44:15.088Z,7.88
2023-02-16T22:46:42.645Z,7.68
2023-02-16T22:49:10.811Z,7.75
2023-02-16T22:51:37.623Z,7.75
2023-02-16T22:54:05.319Z,7.60
2023-02-16T22:56:32.949Z,7.45
2023-02-16T22:59:00.386Z,7.30
2023-02-16T23:01:29.970Z,8.15
2023-02-16T23:03:58.495Z,9.05
2023-02-16T23:06:36.828Z,8.75
2023-02-16T23:09:08.083Z,8.90
2023-02-16T23:11:35.713Z,8.07
2023-02-16T23:14:02.795Z,8.30
2023-02-16T23:16:29.674Z,9.23
2023-02-16T23:18:58.671Z,9.02
2023-02-16T23:21:31.198Z,8.43
2023-02-16T23:23:58.907Z,7.50
2023-02-16T23:26:27.941Z,8.07
2023-02-16T23:28:57.791Z,8.40
2023-02-16T23:31:24.594Z,8.75
2023-02-16T23:33:51.710Z,8.75
2023-02-16T23:36:18.468Z,8.43
2023-02-16T23:38:45.076Z,8.25
2023-02-16T23:41:13.711Z,8.63
2023-02-16T23:43:41.280Z,8.68
2023-02-16T23:46:08.818Z,8.30
2023-02-16T23:48:36.200Z,9.77
2023-02-16T23:51:02.845Z,9.55
2023-02-16T23:53:29.502Z,8.55
2023-02-16T23:56:23.477Z,8.30
2023-02-16T23:58:50.622Z,8.60
